KFQD

Rutherford Co - Marchman Field Airport

Rutherfordton, North Carolina, USA
METAR KFQD 181945Z AUTO 00000KT 10SM CLR 15/06 A3010 RMK AO2 T01450057
Observed Flight Rules
Dec-18 @ 19:45 UTC (31 minutes ago) Visual Flight Rules
Wind Visibility Clouds
Calm 10 miles
  • Clear skies
Temperatures Readings
Current 15°C / 59°F
Dewpoint 6°C / 43°F
Humidity 55%
Altimeter 30.1" Hg
Pressure 1019 hPa
Elevation 329
METAR KFQD 181945Z AUTO 00000KT 10SM CLR 15/06 A3010 RMK AO2 T01450057
Observed Flight Rules
Dec-18 @ 19:45 UTC
(31 minutes ago)
VFR
Wind Visibility
Calm 10 miles
Clouds
  • Clear skies
Temperature Dewpoint
15°C / 59°F 6°C / 43°F
Humidity Altimeter Pressure
55% 30.1" Hg 1019 hPa